createdAt,value
2023-01-28T00:00:10.116Z,5.45
2023-01-28T00:02:37.690Z,6.07
2023-01-28T00:05:05.348Z,7.43
2023-01-28T00:07:32.643Z,7.03
2023-01-28T00:10:00.138Z,6.88
2023-01-28T00:12:27.524Z,7.38
2023-01-28T00:14:56.184Z,5.68
2023-01-28T00:17:23.519Z,7.15
2023-01-28T00:19:50.829Z,7.38
2023-01-28T00:22:18.208Z,9.18
2023-01-28T00:24:47.223Z,6.63
2023-01-28T00:27:14.559Z,7.65
2023-01-28T00:29:42.155Z,8.50
2023-01-28T00:32:11.187Z,10.48
2023-01-28T00:34:38.497Z,9.60
2023-01-28T00:37:06.319Z,10.45
2023-01-28T00:39:33.648Z,10.55
2023-01-28T00:42:01.093Z,13.63
2023-01-28T00:44:28.927Z,9.20
2023-01-28T00:46:56.594Z,10.50
2023-01-28T00:49:25.400Z,10.52
2023-01-28T00:51:52.800Z,9.70
2023-01-28T00:54:20.183Z,9.48
2023-01-28T00:56:47.509Z,10.52
2023-01-28T00:59:15.300Z,9.55
2023-01-28T01:01:42.827Z,10.88
2023-01-28T01:04:10.483Z,9.82
2023-01-28T01:06:40.687Z,7.70
2023-01-28T01:09:08.885Z,8.35
2023-01-28T01:11:36.323Z,9.55
2023-01-28T01:14:05.077Z,8.02
2023-01-28T01:16:33.304Z,9.88
2023-01-28T01:19:01.174Z,9.63
2023-01-28T01:21:30.094Z,8.20
2023-01-28T01:23:59.047Z,8.43
2023-01-28T01:26:27.256Z,8.70
2023-01-28T01:28:54.755Z,7.43
2023-01-28T01:31:23.014Z,8.07
2023-01-28T01:33:50.970Z,8.73
2023-01-28T01:36:20.195Z,10.07
2023-01-28T01:38:47.457Z,7.80
2023-01-28T01:41:22.996Z,8.80
2023-01-28T01:43:51.269Z,8.60
2023-01-28T01:46:20.651Z,8.15
2023-01-28T01:48:50.542Z,11.55
2023-01-28T01:51:20.046Z,10.95
2023-01-28T01:53:50.545Z,9.38
2023-01-28T01:56:21.957Z,8.63
2023-01-28T01:58:51.246Z,9.80
2023-01-28T02:01:21.093Z,11.02
2023-01-28T02:03:51.991Z,9.85
2023-01-28T02:06:19.670Z,11.48
2023-01-28T02:08:47.344Z,12.43
2023-01-28T02:11:18.256Z,11.82
2023-01-28T02:13:48.222Z,10.20
2023-01-28T02:16:15.873Z,10.13
2023-01-28T02:18:43.486Z,11.77
2023-01-28T02:21:29.309Z,12.20
2023-01-28T02:24:08.673Z,12.85
2023-01-28T02:26:51.421Z,13.88
2023-01-28T02:29:24.850Z,16.13
2023-01-28T02:31:54.931Z,14.90
2023-01-28T02:34:26.954Z,12.98
2023-01-28T02:36:56.133Z,14.93
2023-01-28T02:39:25.527Z,17.58
2023-01-28T02:41:57.190Z,15.77
2023-01-28T02:44:26.126Z,14.75
2023-01-28T02:47:11.313Z,17.63
2023-01-28T02:49:41.001Z,15.30
2023-01-28T02:52:43.986Z,12.45
2023-01-28T02:55:14.845Z,15.75
2023-01-28T02:57:47.967Z,17.50
2023-01-28T03:00:19.295Z,13.82
2023-01-28T03:02:54.245Z,16.27
2023-01-28T03:05:23.656Z,16.27
2023-01-28T03:07:51.425Z,15.13
2023-01-28T03:10:19.913Z,13.65
2023-01-28T03:13:08.111Z,15.75
2023-01-28T03:15:55.878Z,14.82
2023-01-28T03:18:42.576Z,12.68
2023-01-28T03:21:29.224Z,13.75
2023-01-28T03:24:17.193Z,13.27
2023-01-28T03:27:05.001Z,12.40
2023-01-28T03:29:50.433Z,12.98
2023-01-28T03:32:37.359Z,12.23
2023-01-28T03:35:24.064Z,13.48
2023-01-28T03:37:51.661Z,10.82
2023-01-28T03:40:19.308Z,10.77
2023-01-28T03:42:46.605Z,12.35
2023-01-28T03:45:15.114Z,10.73
2023-01-28T03:47:44.954Z,11.48
2023-01-28T03:50:12.447Z,12.90
2023-01-28T03:52:39.990Z,12.25
2023-01-28T03:55:14.013Z,10.00
2023-01-28T03:57:41.696Z,12.02
2023-01-28T04:00:11.636Z,11.52
2023-01-28T04:02:40.424Z,10.57
2023-01-28T04:05:12.837Z,10.63
2023-01-28T04:07:40.539Z,9.88
2023-01-28T04:10:09.938Z,11.32
2023-01-28T04:12:38.430Z,9.00
2023-01-28T04:15:15.546Z,9.35
2023-01-28T04:17:45.582Z,9.82
2023-01-28T04:20:14.980Z,11.38
2023-01-28T04:22:43.330Z,12.68
2023-01-28T04:25:11.677Z,10.02
2023-01-28T04:27:39.015Z,14.95
2023-01-28T04:30:07.302Z,10.18
2023-01-28T04:32:34.825Z,12.43
2023-01-28T04:35:02.168Z,12.93
2023-01-28T04:37:30.800Z,14.23
2023-01-28T04:40:00.548Z,11.90
2023-01-28T04:42:27.923Z,17.17
2023-01-28T04:44:55.260Z,12.48
2023-01-28T04:47:22.599Z,11.50
2023-01-28T04:49:49.897Z,12.07
2023-01-28T04:52:17.271Z,12.60
2023-01-28T04:54:46.369Z,13.95
2023-01-28T04:57:16.513Z,13.25
2023-01-28T04:59:43.913Z,16.55
2023-01-28T05:02:11.235Z,13.80
2023-01-28T05:04:38.512Z,13.68
2023-01-28T05:07:06.297Z,17.67
2023-01-28T05:09:33.593Z,15.77
2023-01-28T05:12:02.936Z,18.10
2023-01-28T05:14:30.236Z,14.48
2023-01-28T05:16:57.843Z,12.07
2023-01-28T05:19:25.262Z,17.02
2023-01-28T05:21:53.260Z,13.88
2023-01-28T05:24:21.438Z,15.57
2023-01-28T05:26:48.883Z,16.73
2023-01-28T05:29:17.781Z,18.23
2023-01-28T05:31:45.304Z,23.50
2023-01-28T05:34:12.853Z,23.70
2023-01-28T05:36:41.094Z,25.42
2023-01-28T05:39:08.576Z,27.63
2023-01-28T05:41:36.563Z,26.38
2023-01-28T05:44:04.431Z,27.98
2023-01-28T05:46:36.511Z,29.60
2023-01-28T05:49:04.120Z,30.92
2023-01-28T05:51:31.480Z,32.20
2023-01-28T05:53:59.037Z,28.92
2023-01-28T05:56:26.345Z,27.85
2023-01-28T05:58:53.741Z,27.83
2023-01-28T06:01:21.289Z,29.40
2023-01-28T06:03:49.928Z,26.60
2023-01-28T06:06:17.336Z,29.58
2023-01-28T06:08:44.768Z,28.23
2023-01-28T06:11:12.117Z,29.67
2023-01-28T06:13:41.517Z,26.55
2023-01-28T06:16:09.345Z,27.35
2023-01-28T06:18:36.916Z,24.58
2023-01-28T06:21:05.861Z,29.60
2023-01-28T06:23:33.161Z,24.02
2023-01-28T06:26:00.800Z,29.42
2023-01-28T06:28:28.443Z,26.70
2023-01-28T06:30:56.062Z,25.30
2023-01-28T06:33:24.124Z,24.88
2023-01-28T06:35:51.402Z,27.80
2023-01-28T06:38:20.371Z,29.27
2023-01-28T06:40:51.777Z,24.65
2023-01-28T06:43:19.110Z,28.92
2023-01-28T06:45:48.864Z,26.75
2023-01-28T06:48:16.223Z,23.15
2023-01-28T06:50:43.551Z,27.10
2023-01-28T06:53:10.929Z,21.60
2023-01-28T06:55:39.633Z,22.75
2023-01-28T06:58:07.049Z,23.63
2023-01-28T07:00:34.534Z,23.00
2023-01-28T07:03:02.165Z,22.48
2023-01-28T07:05:29.516Z,22.20
2023-01-28T07:07:56.918Z,21.15
2023-01-28T07:10:24.273Z,21.27
2023-01-28T07:12:52.977Z,25.08
2023-01-28T07:15:20.435Z,21.83
2023-01-28T07:17:47.767Z,20.15
2023-01-28T07:20:18.675Z,22.40
2023-01-28T07:22:46.568Z,20.40
2023-01-28T07:25:16.727Z,24.35
2023-01-28T07:27:47.937Z,21.02
2023-01-28T07:30:17.389Z,18.98
2023-01-28T07:32:45.159Z,20.27
2023-01-28T07:35:12.515Z,17.83
2023-01-28T07:37:40.764Z,17.63
2023-01-28T07:40:09.011Z,18.75
2023-01-28T07:42:36.359Z,21.10
2023-01-28T07:45:04.978Z,19.02
2023-01-28T07:47:33.600Z,22.27
2023-01-28T07:50:00.989Z,18.23
2023-01-28T07:52:28.337Z,21.83
2023-01-28T07:54:55.703Z,22.70
2023-01-28T07:57:24.149Z,21.63
2023-01-28T07:59:51.681Z,22.08
2023-01-28T08:02:19.054Z,22.63
2023-01-28T08:04:48.404Z,23.52
2023-01-28T08:07:16.151Z,22.77
2023-01-28T08:09:43.535Z,22.38
2023-01-28T08:12:11.097Z,24.42
2023-01-28T08:14:38.460Z,23.75
2023-01-28T08:17:05.720Z,23.08
2023-01-28T08:19:33.563Z,26.58
2023-01-28T08:22:02.232Z,22.88
2023-01-28T08:24:29.675Z,24.00
2023-01-28T08:26:57.095Z,23.17
2023-01-28T08:29:28.340Z,24.02
2023-01-28T08:31:55.625Z,23.52
2023-01-28T08:34:22.990Z,25.75
2023-01-28T08:36:50.288Z,23.30
2023-01-28T08:39:19.036Z,24.38
2023-01-28T08:41:46.390Z,22.85
2023-01-28T08:44:13.927Z,21.90
2023-01-28T08:46:41.840Z,24.08
2023-01-28T08:49:09.461Z,28.33
2023-01-28T08:51:36.789Z,23.05
2023-01-28T08:54:04.275Z,24.25
2023-01-28T08:56:33.717Z,20.98
2023-01-28T08:59:01.302Z,22.55
2023-01-28T09:01:29.308Z,18.13
2023-01-28T09:03:56.879Z,20.42
2023-01-28T09:06:25.862Z,19.27
2023-01-28T09:08:55.709Z,23.50
2023-01-28T09:11:23.682Z,23.10
2023-01-28T09:13:52.486Z,21.73
2023-01-28T09:16:19.888Z,21.50
2023-01-28T09:18:48.212Z,21.25
2023-01-28T09:21:15.521Z,22.02
2023-01-28T09:23:42.836Z,21.05
2023-01-28T09:26:12.679Z,21.88
2023-01-28T09:28:40.312Z,21.88
2023-01-28T09:31:09.783Z,20.42
2023-01-28T09:33:37.880Z,20.65
2023-01-28T09:36:06.492Z,22.00
2023-01-28T09:38:35.335Z,19.88
2023-01-28T09:41:04.130Z,19.42
2023-01-28T09:43:40.893Z,22.08
2023-01-28T09:46:12.875Z,22.48
2023-01-28T09:48:42.678Z,25.27
2023-01-28T09:51:12.809Z,22.13
2023-01-28T09:53:41.974Z,22.17
2023-01-28T09:56:14.407Z,20.50
2023-01-28T09:58:42.750Z,22.85
2023-01-28T10:01:21.416Z,24.25
2023-01-28T10:03:53.661Z,24.02
2023-01-28T10:06:24.641Z,20.10
2023-01-28T10:09:04.314Z,21.40
2023-01-28T10:11:38.250Z,22.33
2023-01-28T10:14:07.505Z,17.52
2023-01-28T10:16:38.547Z,22.13
2023-01-28T10:19:07.950Z,22.30
2023-01-28T10:21:37.763Z,19.02
2023-01-28T10:24:07.928Z,21.92
2023-01-28T10:26:36.748Z,24.27
2023-01-28T10:29:05.811Z,19.52
2023-01-28T10:31:36.775Z,22.15
2023-01-28T10:34:05.722Z,17.92
2023-01-28T10:36:33.166Z,18.80
2023-01-28T10:39:00.911Z,18.58
2023-01-28T10:41:28.251Z,16.27
2023-01-28T10:43:57.872Z,20.05
2023-01-28T10:46:28.817Z,15.80
2023-01-28T10:48:59.244Z,18.73
2023-01-28T10:51:35.525Z,20.80
2023-01-28T10:54:02.827Z,16.70
2023-01-28T10:56:36.476Z,18.25
2023-01-28T10:59:04.773Z,18.70
2023-01-28T11:01:45.261Z,17.15
2023-01-28T11:04:16.696Z,19.20
2023-01-28T11:06:55.193Z,18.88
2023-01-28T11:09:23.012Z,18.52
2023-01-28T11:11:50.663Z,19.65
2023-01-28T11:14:21.723Z,19.88
2023-01-28T11:16:50.244Z,19.80
2023-01-28T11:19:19.487Z,19.17
2023-01-28T11:21:52.698Z,20.38
2023-01-28T11:24:21.930Z,20.23
2023-01-28T11:26:50.510Z,19.25
2023-01-28T11:29:26.631Z,19.00
2023-01-28T11:31:54.360Z,19.88
2023-01-28T11:34:22.225Z,20.48
2023-01-28T11:36:55.037Z,21.58
2023-01-28T11:39:25.730Z,18.15
2023-01-28T11:41:53.060Z,19.67
2023-01-28T11:44:22.059Z,18.77
2023-01-28T11:46:56.196Z,19.55
2023-01-28T11:49:29.358Z,21.55
2023-01-28T11:52:03.439Z,21.58
2023-01-28T11:54:37.829Z,21.20
2023-01-28T11:57:18.154Z,19.35
2023-01-28T11:59:55.247Z,19.23
2023-01-28T12:02:31.972Z,18.98
2023-01-28T12:05:08.278Z,17.95
2023-01-28T12:07:41.787Z,18.92
2023-01-28T12:10:14.597Z,20.77
2023-01-28T12:12:53.874Z,21.30
2023-01-28T12:15:39.267Z,18.10
2023-01-28T12:18:12.258Z,16.48
2023-01-28T12:20:43.449Z,17.52
2023-01-28T12:23:25.661Z,19.25
2023-01-28T12:26:00.172Z,17.50
2023-01-28T12:28:34.197Z,21.15
2023-01-28T12:31:13.528Z,17.35
2023-01-28T12:33:58.986Z,20.27
2023-01-28T12:36:31.585Z,18.10
2023-01-28T12:39:04.943Z,20.55
2023-01-28T12:41:38.226Z,16.52
2023-01-28T12:44:08.820Z,19.90
2023-01-28T12:46:43.762Z,17.25
2023-01-28T12:49:17.016Z,17.98
2023-01-28T12:51:49.197Z,17.77
2023-01-28T12:54:21.600Z,19.13
2023-01-28T12:56:55.214Z,14.35
2023-01-28T12:59:29.629Z,17.80
2023-01-28T13:02:01.915Z,21.40
2023-01-28T13:04:33.159Z,18.45
2023-01-28T13:07:06.863Z,16.10
2023-01-28T13:09:38.087Z,16.35
2023-01-28T13:12:07.671Z,16.85
2023-01-28T13:14:37.538Z,17.65
2023-01-28T13:17:12.956Z,18.23
2023-01-28T13:19:42.386Z,20.55
2023-01-28T13:22:27.460Z,18.40
2023-01-28T13:24:54.959Z,20.95
2023-01-28T13:27:25.658Z,18.98
2023-01-28T13:30:02.445Z,20.02
2023-01-28T13:32:33.656Z,19.30
2023-01-28T13:35:02.784Z,19.13
2023-01-28T13:37:33.088Z,25.85
2023-01-28T13:40:03.167Z,18.95
2023-01-28T13:42:41.201Z,17.42
2023-01-28T13:45:22.001Z,17.67
2023-01-28T13:47:52.862Z,16.77
2023-01-28T13:50:23.979Z,17.35
2023-01-28T13:52:54.357Z,16.70
2023-01-28T13:55:37.535Z,17.95
2023-01-28T13:58:23.947Z,15.80
2023-01-28T14:01:06.404Z,15.70
2023-01-28T14:03:43.808Z,16.50
2023-01-28T14:06:20.917Z,17.33
2023-01-28T14:09:06.382Z,16.75
2023-01-28T14:11:47.391Z,15.48
2023-01-28T14:14:32.324Z,16.58
2023-01-28T14:22:42.211Z,19.70
2023-01-28T14:25:13.772Z,17.98
2023-01-28T14:27:43.823Z,20.70
2023-01-28T14:30:16.907Z,17.15
2023-01-28T14:32:47.838Z,17.75
2023-01-28T14:35:19.450Z,17.50
2023-01-28T14:37:48.162Z,24.17
2023-01-28T14:40:17.183Z,16.05
2023-01-28T14:42:46.067Z,15.48
2023-01-28T14:45:23.556Z,19.55
2023-01-28T14:47:59.194Z,16.30
2023-01-28T14:50:35.817Z,16.45
2023-01-28T14:53:24.180Z,17.05
2023-01-28T14:55:55.908Z,16.38
2023-01-28T14:58:26.369Z,18.02
2023-01-28T15:00:54.416Z,15.65
2023-01-28T15:03:26.090Z,16.38
2023-01-28T15:06:02.768Z,15.73
2023-01-28T15:08:32.052Z,16.48
2023-01-28T15:11:01.973Z,16.17
2023-01-28T15:13:30.280Z,16.33
2023-01-28T15:15:58.219Z,17.77
2023-01-28T15:18:30.130Z,16.75
2023-01-28T15:20:58.484Z,16.73
2023-01-28T15:23:27.583Z,17.38
2023-01-28T15:25:55.237Z,18.98
2023-01-28T15:28:27.500Z,17.45
2023-01-28T15:30:54.943Z,18.25
2023-01-28T15:33:24.023Z,17.83
2023-01-28T15:35:52.506Z,20.20
2023-01-28T15:38:19.872Z,19.17
2023-01-28T15:40:48.849Z,16.77
2023-01-28T15:43:19.939Z,19.55
2023-01-28T15:45:48.978Z,18.15
2023-01-28T15:48:16.457Z,19.52
2023-01-28T15:50:44.840Z,20.08
2023-01-28T15:53:14.084Z,20.30
2023-01-28T15:55:42.559Z,21.20
2023-01-28T15:58:20.119Z,22.58
2023-01-28T16:00:50.787Z,22.15
2023-01-28T16:03:20.160Z,24.15
2023-01-28T16:05:55.972Z,26.88
2023-01-28T16:08:26.120Z,24.90
2023-01-28T16:10:54.392Z,42.95
2023-01-28T16:13:22.862Z,41.25
2023-01-28T16:15:53.676Z,30.77
2023-01-28T16:18:25.151Z,31.33
2023-01-28T16:20:53.664Z,32.35
2023-01-28T16:23:22.606Z,32.60
2023-01-28T16:25:59.183Z,46.10
2023-01-28T16:28:26.469Z,32.67
2023-01-28T16:30:55.411Z,48.58
2023-01-28T16:33:23.092Z,61.53
2023-01-28T16:36:07.417Z,83.75
2023-01-28T16:38:35.443Z,138.50
2023-01-28T16:41:02.838Z,51.92
2023-01-28T16:43:30.384Z,52.53
2023-01-28T16:45:59.028Z,59.05
2023-01-28T16:48:26.355Z,52.45
2023-01-28T16:50:54.155Z,91.47
2023-01-28T16:53:22.944Z,55.70
2023-01-28T16:55:50.827Z,50.80
2023-01-28T16:58:23.334Z,41.58
2023-01-28T17:00:55.133Z,46.00
2023-01-28T17:03:24.847Z,46.80
2023-01-28T17:05:52.640Z,44.53
2023-01-28T17:08:20.280Z,46.72
2023-01-28T17:10:52.303Z,60.78
2023-01-28T17:13:19.732Z,44.05
2023-01-28T17:15:47.531Z,41.00
2023-01-28T17:18:15.291Z,60.35
2023-01-28T17:20:44.138Z,54.33
2023-01-28T17:23:14.660Z,83.10
2023-01-28T17:25:42.736Z,43.83
2023-01-28T17:28:10.661Z,45.08
2023-01-28T17:30:41.209Z,54.72
2023-01-28T17:33:10.068Z,62.08
2023-01-28T17:35:37.780Z,44.83
2023-01-28T17:38:06.828Z,45.00
2023-01-28T17:40:34.160Z,53.15
2023-01-28T17:43:01.650Z,51.53
2023-01-28T17:45:31.205Z,51.53
2023-01-28T17:47:58.613Z,51.78
2023-01-28T17:50:26.188Z,51.80
2023-01-28T17:52:54.743Z,66.03
2023-01-28T17:55:23.800Z,56.75
2023-01-28T17:57:51.076Z,53.25
2023-01-28T18:00:19.631Z,52.70
2023-01-28T18:02:50.101Z,59.25
2023-01-28T18:05:18.029Z,57.40
2023-01-28T18:07:46.029Z,56.30
2023-01-28T18:10:13.735Z,58.75
2023-01-28T18:12:42.462Z,109.38
2023-01-28T18:15:11.470Z,63.00
2023-01-28T18:17:41.938Z,80.97
2023-01-28T18:20:11.256Z,81.80
2023-01-28T18:22:39.705Z,62.63
2023-01-28T18:25:10.149Z,120.07
2023-01-28T18:27:37.488Z,55.58
2023-01-28T18:30:06.783Z,64.38
2023-01-28T18:32:35.105Z,57.35
2023-01-28T18:35:02.871Z,65.18
2023-01-28T18:37:30.812Z,61.42
2023-01-28T18:39:58.356Z,60.78
2023-01-28T18:42:25.724Z,66.47
2023-01-28T18:44:53.456Z,67.85
2023-01-28T18:47:22.519Z,68.53
2023-01-28T18:49:49.884Z,72.22
2023-01-28T18:52:17.361Z,67.25
2023-01-28T18:54:45.534Z,83.93
2023-01-28T18:57:13.129Z,102.82
2023-01-28T18:59:40.394Z,106.90
2023-01-28T19:02:07.809Z,78.22
2023-01-28T19:04:39.041Z,78.82
2023-01-28T19:07:08.245Z,79.53
2023-01-28T19:09:36.483Z,78.80
2023-01-28T19:12:03.938Z,73.07
2023-01-28T19:14:33.711Z,73.88
2023-01-28T19:17:01.035Z,76.18
2023-01-28T19:19:28.443Z,74.93
2023-01-28T19:21:57.042Z,75.90
2023-01-28T19:24:25.156Z,82.88
2023-01-28T19:26:52.696Z,94.72
2023-01-28T19:29:20.050Z,102.57
2023-01-28T19:31:49.425Z,80.80
2023-01-28T19:34:16.911Z,88.25
2023-01-28T19:36:44.605Z,146.35
2023-01-28T19:39:13.763Z,184.02
2023-01-28T19:41:41.208Z,171.73
2023-01-28T19:44:08.528Z,181.93
2023-01-28T19:46:38.004Z,95.80
2023-01-28T19:49:06.313Z,113.22
2023-01-28T19:51:33.725Z,179.02
2023-01-28T19:54:01.447Z,153.98
2023-01-28T19:56:30.466Z,170.13
2023-01-28T19:58:58.102Z,121.82
2023-01-28T20:01:29.685Z,142.15
2023-01-28T20:03:59.182Z,137.18
2023-01-28T20:06:27.610Z,260.40
2023-01-28T20:08:55.929Z,107.50
2023-01-28T20:11:23.379Z,77.32
2023-01-28T20:13:52.531Z,105.47
2023-01-28T20:16:21.236Z,110.18
2023-01-28T20:18:51.979Z,122.97
2023-01-28T20:21:22.013Z,146.95
2023-01-28T20:23:50.176Z,92.95
2023-01-28T20:26:17.908Z,123.05
2023-01-28T20:28:45.349Z,101.45
2023-01-28T20:31:14.731Z,111.65
2023-01-28T20:33:42.118Z,104.20
2023-01-28T20:36:10.196Z,111.38
2023-01-28T20:38:38.045Z,110.13
2023-01-28T20:41:06.973Z,122.07
2023-01-28T20:43:34.847Z,143.98
2023-01-28T20:46:02.994Z,146.73
2023-01-28T20:48:31.641Z,92.95
2023-01-28T20:51:04.955Z,95.07
2023-01-28T20:53:32.366Z,117.03
2023-01-28T20:56:00.166Z,90.10
2023-01-28T20:58:28.020Z,96.05
2023-01-28T21:00:55.314Z,111.85
2023-01-28T21:03:22.727Z,88.38
2023-01-28T21:05:51.599Z,89.45
2023-01-28T21:08:19.205Z,89.43
2023-01-28T21:10:46.637Z,84.68
2023-01-28T21:13:14.675Z,86.30
2023-01-28T21:15:42.360Z,86.45
2023-01-28T21:18:09.680Z,89.72
2023-01-28T21:20:38.023Z,89.10
2023-01-28T21:23:14.449Z,83.55
2023-01-28T21:25:41.900Z,92.28
2023-01-28T21:28:10.401Z,90.35
2023-01-28T21:30:37.753Z,90.15
2023-01-28T21:33:05.302Z,82.10
2023-01-28T21:35:33.315Z,100.00
2023-01-28T21:38:00.644Z,104.07
2023-01-28T21:40:29.241Z,100.03
2023-01-28T21:42:56.558Z,93.55
2023-01-28T21:45:24.078Z,95.45
2023-01-28T21:47:51.390Z,89.75
2023-01-28T21:50:18.824Z,90.57
2023-01-28T21:52:48.583Z,85.30
2023-01-28T21:55:16.691Z,90.22
2023-01-28T21:57:46.043Z,98.20
2023-01-28T22:00:13.005Z,99.97
2023-01-28T22:02:40.493Z,92.88
2023-01-28T22:05:08.335Z,105.00
2023-01-28T22:07:35.648Z,89.63
2023-01-28T22:10:03.176Z,92.07
2023-01-28T22:12:30.489Z,88.65
2023-01-28T22:14:59.956Z,86.53
2023-01-28T22:17:27.261Z,87.80
2023-01-28T22:19:54.802Z,92.55
2023-01-28T22:22:22.132Z,88.20
2023-01-28T22:24:49.411Z,88.78
2023-01-28T22:27:16.759Z,88.75
2023-01-28T22:29:44.053Z,94.57
2023-01-28T22:32:12.698Z,93.90
2023-01-28T22:34:40.745Z,102.43
2023-01-28T22:37:08.052Z,113.20
2023-01-28T22:39:35.360Z,108.03
2023-01-28T22:42:02.649Z,117.47
2023-01-28T22:44:30.007Z,97.47
2023-01-28T22:46:57.316Z,89.97
2023-01-28T22:49:26.627Z,94.65
2023-01-28T22:51:53.881Z,88.47
2023-01-28T22:54:21.433Z,141.18
2023-01-28T22:56:48.827Z,121.13
2023-01-28T22:59:16.151Z,112.95
2023-01-28T23:01:43.706Z,133.02
2023-01-28T23:04:12.635Z,172.43
2023-01-28T23:06:41.608Z,148.48
2023-01-28T23:09:09.219Z,158.00
2023-01-28T23:11:36.803Z,167.65
2023-01-28T23:14:22.627Z,113.43
2023-01-28T23:17:07.673Z,142.73
2023-01-28T23:19:52.969Z,109.75
2023-01-28T23:22:40.906Z,177.65
2023-01-28T23:25:08.612Z,122.22
2023-01-28T23:27:36.534Z,96.88
2023-01-28T23:30:05.637Z,139.25
2023-01-28T23:32:32.941Z,126.47
2023-01-28T23:35:00.258Z,108.75
2023-01-28T23:37:29.360Z,88.40
2023-01-28T23:39:56.917Z,166.85
2023-01-28T23:42:25.851Z,86.35
2023-01-28T23:44:53.240Z,85.28
2023-01-28T23:47:20.807Z,79.55
2023-01-28T23:49:49.681Z,99.43
2023-01-28T23:52:17.450Z,86.70
2023-01-28T23:54:46.096Z,118.32
2023-01-28T23:57:13.584Z,124.80
2023-01-28T23:59:40.908Z,83.68
